createdAt,value
2023-02-06T00:02:03.470Z,1.16
2023-02-06T00:04:33.964Z,1.11
2023-02-06T00:07:04.303Z,1.07
2023-02-06T00:09:34.692Z,1.03
2023-02-06T00:12:05.180Z,0.98
2023-02-06T00:14:36.464Z,0.94
2023-02-06T00:17:05.484Z,0.90
2023-02-06T00:19:35.915Z,0.87
2023-02-06T00:22:06.449Z,0.82
2023-02-06T00:24:36.955Z,0.77
2023-02-06T00:27:07.836Z,0.71
2023-02-06T00:29:38.275Z,0.66
2023-02-06T00:32:08.877Z,0.61
2023-02-06T00:34:39.304Z,0.57
2023-02-06T00:37:10.213Z,0.53
2023-02-06T00:39:40.540Z,0.48
2023-02-06T00:42:11.010Z,0.44
2023-02-06T00:44:42.050Z,0.40
2023-02-06T00:47:12.577Z,0.36
2023-02-06T00:49:43.233Z,0.32
2023-02-06T00:52:13.697Z,0.29
2023-02-06T00:54:44.100Z,0.26
2023-02-06T00:57:14.456Z,0.22
2023-02-06T00:59:45.083Z,0.18
2023-02-06T01:02:15.452Z,0.15
2023-02-06T01:04:46.243Z,0.12
2023-02-06T01:07:16.644Z,0.10
2023-02-06T01:09:47.001Z,0.07
2023-02-06T01:12:17.472Z,0.06
2023-02-06T01:14:47.830Z,0.05
2023-02-06T01:17:18.320Z,0.03
2023-02-06T01:19:48.683Z,0.01
2023-02-06T01:22:19.122Z,0.00
2023-02-06T01:24:49.635Z,-0.01
2023-02-06T01:27:20.086Z,-0.02
2023-02-06T01:29:50.523Z,-0.03
2023-02-06T01:32:21.140Z,-0.06
2023-02-06T01:34:52.184Z,-0.10
2023-02-06T01:37:22.522Z,-0.14
2023-02-06T01:39:52.860Z,-0.17
2023-02-06T01:42:23.154Z,-0.20
2023-02-06T01:45:35.823Z,-0.23
2023-02-06T01:48:09.729Z,-0.26
2023-02-06T01:50:43.250Z,-0.30
2023-02-06T01:53:16.332Z,-0.34
2023-02-06T01:55:49.598Z,-0.39
2023-02-06T01:58:27.806Z,-0.43
2023-02-06T02:01:00.247Z,-0.46
2023-02-06T02:03:32.693Z,-0.48
2023-02-06T02:06:07.827Z,-0.48
2023-02-06T02:08:40.324Z,-0.47
2023-02-06T02:11:16.560Z,-0.46
2023-02-06T02:13:47.449Z,-0.46
2023-02-06T02:16:23.824Z,-0.47
2023-02-06T02:19:07.006Z,-0.48
2023-02-06T02:22:10.735Z,-0.48
2023-02-06T02:25:23.366Z,-0.50
2023-02-06T02:28:13.073Z,-0.54
2023-02-06T02:31:00.283Z,-0.59
2023-02-06T02:33:48.122Z,-0.64
2023-02-06T02:36:23.540Z,-0.68
2023-02-06T02:39:06.363Z,-0.73
2023-02-06T02:41:45.374Z,-0.79
2023-02-06T02:44:27.394Z,-0.85
2023-02-06T02:47:03.223Z,-0.92
2023-02-06T02:49:38.114Z,-0.97
2023-02-06T02:52:08.662Z,-1.03
2023-02-06T02:54:38.998Z,-1.09
2023-02-06T02:57:15.552Z,-1.13
2023-02-06T02:59:48.952Z,-1.18
2023-02-06T03:02:24.150Z,-1.23
2023-02-06T03:04:57.695Z,-1.26
2023-02-06T03:07:38.632Z,-1.29
2023-02-06T03:10:20.463Z,-1.30
2023-02-06T03:12:56.225Z,-1.25
2023-02-06T03:15:32.164Z,-1.20
2023-02-06T03:18:09.123Z,-1.16
2023-02-06T03:20:44.099Z,-1.15
2023-02-06T03:23:19.213Z,-1.13
2023-02-06T03:25:52.794Z,-1.09
2023-02-06T03:28:27.069Z,-1.06
2023-02-06T03:31:00.704Z,-1.03
2023-02-06T03:33:36.786Z,-0.99
2023-02-06T03:36:11.259Z,-0.97
2023-02-06T03:38:42.320Z,-0.95
2023-02-06T03:41:13.634Z,-0.94
2023-02-06T03:43:43.766Z,-0.92
2023-02-06T03:46:20.178Z,-0.90
2023-02-06T03:48:55.117Z,-0.91
2023-02-06T03:51:31.154Z,-0.89
2023-02-06T03:54:05.588Z,-0.89
2023-02-06T03:56:40.235Z,-0.88
2023-02-06T03:59:10.881Z,-0.88
2023-02-06T04:01:45.185Z,-0.88
2023-02-06T04:04:17.286Z,-0.90
2023-02-06T04:06:47.753Z,-0.94
2023-02-06T04:09:18.277Z,-0.99
2023-02-06T04:11:49.187Z,-1.04
2023-02-06T04:14:19.525Z,-1.08
2023-02-06T04:16:50.042Z,-1.09
2023-02-06T04:19:20.519Z,-1.11
2023-02-06T04:21:51.112Z,-1.12
2023-02-06T04:24:21.525Z,-1.13
2023-02-06T04:26:51.866Z,-1.15
2023-02-06T04:29:22.254Z,-1.15
2023-02-06T04:31:52.783Z,-1.16
2023-02-06T04:34:23.191Z,-1.18
2023-02-06T04:36:53.577Z,-1.20
2023-02-06T04:39:23.957Z,-1.20
2023-02-06T04:41:55.232Z,-1.18
2023-02-06T04:44:24.293Z,-1.11
2023-02-06T04:46:54.596Z,-1.06
2023-02-06T04:49:24.989Z,-1.01
2023-02-06T04:51:55.505Z,-0.96
2023-02-06T04:54:26.335Z,-0.91
2023-02-06T04:56:56.601Z,-0.88
2023-02-06T04:59:27.077Z,-0.86
2023-02-06T05:01:57.414Z,-0.85
2023-02-06T05:04:28.279Z,-0.87
2023-02-06T05:06:58.730Z,-0.88
2023-02-06T05:09:29.457Z,-0.89
2023-02-06T05:11:59.805Z,-0.90
2023-02-06T05:14:30.436Z,-0.91
2023-02-06T05:17:00.947Z,-0.92
2023-02-06T05:19:31.439Z,-0.92
2023-02-06T05:22:01.782Z,-0.91
2023-02-06T05:24:32.573Z,-0.88
2023-02-06T05:27:03.037Z,-0.85
2023-02-06T05:29:33.607Z,-0.84
2023-02-06T05:32:04.042Z,-0.82
2023-02-06T05:34:34.462Z,-0.79
2023-02-06T05:37:04.874Z,-0.76
2023-02-06T05:39:35.150Z,-0.74
2023-02-06T05:42:05.825Z,-0.71
2023-02-06T05:44:36.293Z,-0.68
2023-02-06T05:47:06.806Z,-0.65
2023-02-06T05:49:37.148Z,-0.62
2023-02-06T05:52:07.590Z,-0.59
2023-02-06T05:54:38.191Z,-0.55
2023-02-06T05:57:08.634Z,-0.50
2023-02-06T05:59:39.441Z,-0.46
2023-02-06T06:02:10.475Z,-0.43
2023-02-06T06:04:40.925Z,-0.40
2023-02-06T06:07:11.417Z,-0.36
2023-02-06T06:09:41.960Z,-0.34
2023-02-06T06:12:12.434Z,-0.32
2023-02-06T06:14:42.936Z,-0.29
2023-02-06T06:17:13.476Z,-0.29
2023-02-06T06:19:44.025Z,-0.31
2023-02-06T06:22:14.464Z,-0.33
2023-02-06T06:24:44.998Z,-0.33
2023-02-06T06:27:15.616Z,-0.34
2023-02-06T06:29:45.934Z,-0.36
2023-02-06T06:32:16.354Z,-0.37
2023-02-06T06:34:46.704Z,-0.38
2023-02-06T06:37:19.808Z,-0.38
2023-02-06T06:39:50.195Z,-0.37
2023-02-06T06:42:20.635Z,-0.35
2023-02-06T06:44:50.937Z,-0.34
2023-02-06T06:47:21.528Z,-0.30
2023-02-06T06:49:51.975Z,-0.28
2023-02-06T06:52:25.331Z,-0.25
2023-02-06T06:54:56.364Z,-0.22
2023-02-06T06:57:26.911Z,-0.19
2023-02-06T06:59:57.260Z,-0.16
2023-02-06T07:02:28.489Z,-0.14
2023-02-06T07:04:57.808Z,-0.15
2023-02-06T07:07:28.341Z,-0.15
2023-02-06T07:09:59.648Z,-0.13
2023-02-06T07:12:29.034Z,-0.11
2023-02-06T07:14:59.481Z,-0.04
2023-02-06T07:17:30.280Z,0.05
2023-02-06T07:20:01.041Z,0.09
2023-02-06T07:22:31.565Z,0.13
2023-02-06T07:25:02.233Z,0.16
2023-02-06T07:27:33.005Z,0.20
2023-02-06T07:30:05.600Z,0.23
2023-02-06T07:32:38.307Z,0.28
2023-02-06T07:35:09.929Z,0.32
2023-02-06T07:37:40.503Z,0.37
2023-02-06T07:40:13.396Z,0.42
2023-02-06T07:42:44.451Z,0.45
2023-02-06T07:45:27.863Z,0.48
2023-02-06T07:47:58.356Z,0.51
2023-02-06T07:50:28.895Z,0.54
2023-02-06T07:52:59.450Z,0.54
2023-02-06T07:55:30.794Z,0.56
2023-02-06T07:57:59.909Z,0.57
2023-02-06T08:00:30.329Z,0.59
2023-02-06T08:03:00.883Z,0.62
2023-02-06T08:05:32.453Z,0.65
2023-02-06T08:08:03.464Z,0.69
2023-02-06T08:10:34.229Z,0.71
2023-02-06T08:13:04.780Z,0.73
2023-02-06T08:15:36.150Z,0.75
2023-02-06T08:18:07.244Z,0.76
2023-02-06T08:20:37.722Z,0.78
2023-02-06T08:23:08.617Z,0.82
2023-02-06T08:25:39.443Z,0.83
2023-02-06T08:28:10.033Z,0.86
2023-02-06T08:30:42.562Z,0.87
2023-02-06T08:33:14.350Z,0.89
2023-02-06T08:35:44.978Z,0.92
2023-02-06T08:38:15.931Z,0.95
2023-02-06T08:40:49.503Z,0.97
2023-02-06T08:43:20.146Z,1.00
2023-02-06T08:45:53.623Z,1.04
2023-02-06T08:48:24.204Z,1.08
2023-02-06T08:51:04.795Z,1.13
2023-02-06T08:53:36.061Z,1.18
2023-02-06T08:56:09.330Z,1.23
2023-02-06T08:58:41.151Z,1.26
2023-02-06T09:01:16.484Z,1.31
2023-02-06T09:03:47.928Z,1.37
2023-02-06T09:06:18.582Z,1.43
2023-02-06T09:08:49.084Z,1.49
2023-02-06T09:11:22.472Z,1.50
2023-02-06T09:13:55.285Z,1.53
2023-02-06T09:16:33.314Z,1.61
2023-02-06T09:19:04.817Z,1.66
2023-02-06T09:21:36.773Z,1.71
2023-02-06T09:24:09.293Z,1.72
2023-02-06T09:26:57.969Z,1.74
2023-02-06T09:29:32.001Z,1.78
2023-02-06T09:32:03.952Z,1.81
2023-02-06T09:34:34.712Z,1.83
2023-02-06T09:37:11.244Z,1.83
2023-02-06T09:39:42.194Z,1.85
2023-02-06T09:42:20.448Z,1.87
2023-02-06T09:44:57.400Z,1.93
2023-02-06T09:47:32.895Z,1.95
2023-02-06T09:50:08.006Z,2.00
2023-02-06T09:53:05.444Z,2.07
2023-02-06T09:55:40.781Z,2.19
2023-02-06T09:58:23.572Z,2.29
2023-02-06T10:00:59.629Z,2.40
2023-02-06T10:03:52.387Z,2.50
2023-02-06T10:06:28.327Z,2.57
2023-02-06T10:09:04.342Z,2.66
2023-02-06T10:11:42.944Z,2.73
2023-02-06T10:14:22.500Z,2.81
2023-02-06T10:16:57.164Z,2.87
2023-02-06T10:19:38.188Z,2.90
2023-02-06T10:22:15.187Z,2.96
2023-02-06T10:24:51.937Z,2.98
2023-02-06T10:27:22.809Z,3.04
2023-02-06T10:29:53.431Z,3.10
2023-02-06T10:32:39.661Z,3.16
2023-02-06T10:35:24.360Z,3.20
2023-02-06T10:38:15.479Z,3.28
2023-02-06T10:40:54.304Z,3.40
2023-02-06T10:43:34.905Z,3.51
2023-02-06T10:46:20.403Z,3.60
2023-02-06T10:48:58.881Z,3.66
2023-02-06T10:51:33.874Z,3.65
2023-02-06T10:54:07.541Z,3.68
2023-02-06T10:56:41.581Z,3.68
2023-02-06T10:59:24.743Z,3.70
2023-02-06T11:02:14.776Z,3.76
2023-02-06T11:04:51.638Z,3.79
2023-02-06T11:07:35.434Z,3.81
2023-02-06T11:10:07.124Z,3.78
2023-02-06T11:12:41.986Z,3.78
2023-02-06T11:16:17.453Z,3.82
2023-02-06T11:18:45.096Z,3.93
2023-02-06T11:21:36.724Z,3.99
2023-02-06T11:24:12.945Z,3.93
2023-02-06T11:26:46.715Z,3.82
2023-02-06T11:29:20.690Z,3.78
2023-02-06T11:31:53.147Z,3.75
2023-02-06T11:34:28.737Z,3.80
2023-02-06T11:37:02.193Z,3.89
2023-02-06T11:39:34.871Z,4.04
2023-02-06T11:42:19.913Z,4.18
2023-02-06T11:45:10.114Z,4.23
2023-02-06T11:47:40.542Z,4.24
2023-02-06T11:50:29.606Z,4.26
2023-02-06T11:53:11.921Z,4.26
2023-02-06T11:55:43.064Z,4.22
2023-02-06T11:58:23.457Z,4.06
2023-02-06T12:01:04.278Z,3.93
2023-02-06T12:03:40.341Z,3.92
2023-02-06T12:06:19.217Z,3.90
2023-02-06T12:08:53.170Z,3.86
2023-02-06T12:11:30.321Z,3.79
2023-02-06T12:14:05.880Z,3.72
2023-02-06T12:16:40.871Z,3.65
2023-02-06T12:19:17.501Z,3.69
2023-02-06T12:21:51.697Z,3.78
2023-02-06T12:24:28.765Z,3.89
2023-02-06T12:27:04.000Z,3.99
2023-02-06T12:29:41.716Z,4.07
2023-02-06T12:32:18.420Z,4.22
2023-02-06T12:34:54.556Z,4.42
2023-02-06T12:37:31.951Z,4.47
2023-02-06T12:40:03.370Z,4.45
2023-02-06T12:42:37.684Z,4.47
2023-02-06T12:45:18.670Z,4.67
2023-02-06T12:47:53.860Z,4.92
2023-02-06T12:50:29.083Z,5.31
2023-02-06T12:53:05.802Z,5.48
2023-02-06T12:55:40.853Z,5.56
2023-02-06T12:58:29.326Z,5.49
2023-02-06T13:01:31.597Z,5.48
2023-02-06T13:04:06.426Z,5.85
2023-02-06T13:06:47.404Z,6.20
2023-02-06T13:09:25.233Z,6.35
2023-02-06T13:12:07.004Z,6.49
2023-02-06T13:14:40.028Z,6.57
2023-02-06T13:17:17.523Z,6.49
2023-02-06T13:20:02.679Z,6.44
2023-02-06T13:22:45.903Z,6.66
2023-02-06T13:25:50.660Z,6.81
2023-02-06T13:28:58.729Z,7.12
2023-02-06T13:31:33.769Z,6.98
2023-02-06T13:34:09.129Z,6.83
2023-02-06T13:36:49.879Z,6.65
2023-02-06T13:39:34.766Z,6.46
2023-02-06T13:42:33.417Z,6.31
2023-02-06T13:45:06.994Z,6.02
2023-02-06T13:48:05.205Z,5.76
2023-02-06T13:51:05.019Z,5.49
2023-02-06T13:54:14.592Z,5.24
2023-02-06T13:56:54.162Z,5.40
2023-02-06T13:59:29.796Z,5.75
2023-02-06T14:02:12.341Z,6.16
2023-02-06T14:04:44.868Z,6.53
2023-02-06T14:07:36.133Z,6.83
2023-02-06T14:10:24.181Z,7.16
2023-02-06T14:13:19.463Z,7.56
2023-02-06T14:15:59.266Z,7.72
2023-02-06T14:18:43.753Z,7.57
2023-02-06T14:21:25.191Z,7.46
2023-02-06T14:24:34.705Z,7.26
2023-02-06T14:27:20.755Z,6.95
2023-02-06T14:29:57.130Z,6.67
2023-02-06T14:32:37.802Z,6.39
2023-02-06T14:35:28.611Z,6.09
2023-02-06T14:38:23.348Z,5.84
2023-02-06T14:40:57.013Z,5.72
2023-02-06T14:43:32.199Z,5.73
2023-02-06T14:46:08.484Z,5.96
2023-02-06T14:48:46.402Z,6.09
2023-02-06T14:51:26.646Z,6.11
2023-02-06T14:54:01.720Z,6.01
2023-02-06T14:56:36.810Z,5.93
2023-02-06T14:59:20.157Z,5.82
2023-02-06T15:01:54.923Z,5.63
2023-02-06T15:04:27.181Z,5.44
2023-02-06T15:07:00.583Z,5.21
2023-02-06T15:09:34.135Z,5.01
2023-02-06T15:12:19.693Z,4.85
2023-02-06T15:14:57.034Z,4.73
2023-02-06T15:17:28.296Z,4.62
2023-02-06T15:20:13.655Z,4.51
2023-02-06T15:22:44.736Z,4.37
2023-02-06T15:25:35.948Z,4.24
2023-02-06T15:28:08.674Z,4.11
2023-02-06T15:30:40.132Z,4.01
2023-02-06T15:33:19.420Z,3.91
2023-02-06T15:35:54.353Z,3.82
2023-02-06T15:38:28.544Z,3.77
2023-02-06T15:41:02.205Z,3.72
2023-02-06T15:43:34.321Z,3.69
2023-02-06T15:46:07.910Z,3.66
2023-02-06T15:48:43.924Z,3.62
2023-02-06T15:51:24.368Z,3.58
2023-02-06T15:54:06.557Z,3.54
2023-02-06T15:56:41.075Z,3.51
2023-02-06T15:59:20.456Z,3.47
2023-02-06T16:01:52.281Z,3.44
2023-02-06T16:04:26.882Z,3.40
2023-02-06T16:07:09.266Z,3.35
2023-02-06T16:09:44.232Z,3.31
2023-02-06T16:12:16.817Z,3.29
2023-02-06T16:14:58.064Z,3.28
2023-02-06T16:17:35.814Z,3.27
2023-02-06T16:20:34.010Z,3.26
2023-02-06T16:23:27.025Z,3.26
2023-02-06T16:26:07.468Z,3.26
2023-02-06T16:28:59.004Z,3.27
2023-02-06T16:31:35.828Z,3.28
2023-02-06T16:34:24.441Z,3.30
2023-02-06T16:36:56.880Z,3.30
2023-02-06T16:39:27.378Z,3.30
2023-02-06T16:41:58.200Z,3.31
2023-02-06T16:44:43.832Z,3.32
2023-02-06T16:47:20.618Z,3.31
2023-02-06T16:49:52.214Z,3.31
2023-02-06T16:52:27.038Z,3.29
2023-02-06T16:54:58.969Z,3.28
2023-02-06T16:57:33.210Z,3.26
2023-02-06T17:00:06.146Z,3.23
2023-02-06T17:02:37.095Z,3.21
2023-02-06T17:05:08.404Z,3.17
2023-02-06T17:07:37.656Z,3.13
2023-02-06T17:10:10.008Z,3.09
2023-02-06T17:12:41.219Z,3.03
2023-02-06T17:15:13.351Z,2.99
2023-02-06T17:17:43.944Z,2.92
2023-02-06T17:20:30.181Z,2.87
2023-02-06T17:23:00.632Z,2.80
2023-02-06T17:25:31.506Z,2.74
2023-02-06T17:28:02.268Z,2.65
2023-02-06T17:30:32.834Z,2.55
2023-02-06T17:33:03.285Z,2.47
2023-02-06T17:35:36.639Z,2.36
2023-02-06T17:38:08.388Z,2.24
2023-02-06T17:40:41.222Z,2.14
2023-02-06T17:43:12.183Z,2.05
2023-02-06T17:45:43.432Z,1.96
2023-02-06T17:48:15.670Z,1.85
2023-02-06T17:50:46.501Z,1.75
2023-02-06T17:53:17.846Z,1.64
2023-02-06T17:55:47.247Z,1.56
2023-02-06T17:58:18.754Z,1.50
2023-02-06T18:00:51.022Z,1.44
2023-02-06T18:05:33.741Z,1.40
2023-02-06T18:06:55.488Z,1.31
2023-02-06T18:09:25.852Z,1.23
2023-02-06T18:11:56.530Z,1.17
2023-02-06T18:14:27.030Z,1.09
2023-02-06T18:16:57.552Z,1.01
2023-02-06T18:19:28.185Z,0.94
2023-02-06T18:21:58.979Z,0.85
2023-02-06T18:24:29.458Z,0.77
2023-02-06T18:27:03.312Z,0.70
2023-02-06T18:29:48.574Z,0.67
2023-02-06T18:32:20.851Z,0.63
2023-02-06T18:34:51.560Z,0.56
2023-02-06T18:37:22.233Z,0.49
2023-02-06T18:39:55.122Z,0.42
2023-02-06T18:42:43.400Z,0.35
2023-02-06T18:45:14.282Z,0.29
2023-02-06T18:47:44.754Z,0.22
2023-02-06T18:50:15.945Z,0.15
2023-02-06T18:52:46.423Z,0.09
2023-02-06T18:55:17.598Z,0.02
2023-02-06T18:57:48.231Z,-0.06
2023-02-06T19:00:21.249Z,-0.12
2023-02-06T19:02:52.046Z,-0.20
2023-02-06T19:05:23.508Z,-0.27
2023-02-06T19:07:54.944Z,-0.33
2023-02-06T19:10:26.840Z,-0.39
2023-02-06T19:12:57.248Z,-0.43
2023-02-06T19:15:30.121Z,-0.47
2023-02-06T19:18:02.249Z,-0.49
2023-02-06T19:20:32.692Z,-0.53
2023-02-06T19:23:03.125Z,-0.56
2023-02-06T19:25:33.457Z,-0.59
2023-02-06T19:28:03.949Z,-0.61
2023-02-06T19:30:35.504Z,-0.59
2023-02-06T19:33:06.408Z,-0.57
2023-02-06T19:35:40.261Z,-0.55
2023-02-06T19:38:10.819Z,-0.52
2023-02-06T19:40:41.269Z,-0.48
2023-02-06T19:43:12.004Z,-0.45
2023-02-06T19:45:43.010Z,-0.43
2023-02-06T19:48:14.082Z,-0.40
2023-02-06T19:50:45.031Z,-0.31
2023-02-06T19:53:16.869Z,-0.21
2023-02-06T19:55:50.708Z,-0.13
2023-02-06T19:58:21.245Z,-0.08
2023-02-06T20:00:54.725Z,0.00
2023-02-06T20:03:25.864Z,0.07
2023-02-06T20:06:01.067Z,0.13
2023-02-06T20:08:31.750Z,0.16
2023-02-06T20:11:06.385Z,0.19
2023-02-06T20:13:38.057Z,0.20
2023-02-06T20:16:14.691Z,0.22
2023-02-06T20:18:45.544Z,0.26
2023-02-06T20:21:29.482Z,0.28
2023-02-06T20:24:02.408Z,0.29
2023-02-06T20:26:34.935Z,0.29
2023-02-06T20:29:06.540Z,0.24
2023-02-06T20:31:37.987Z,0.21
2023-02-06T20:34:08.485Z,0.18
2023-02-06T20:36:41.778Z,0.15
2023-02-06T20:39:13.987Z,0.12
2023-02-06T20:41:45.472Z,0.09
2023-02-06T20:44:16.454Z,0.07
2023-02-06T20:46:47.230Z,0.03
2023-02-06T20:49:20.367Z,-0.02
2023-02-06T20:51:51.738Z,-0.06
2023-02-06T20:54:21.661Z,-0.12
2023-02-06T20:56:52.778Z,-0.19
2023-02-06T20:59:23.690Z,-0.26
2023-02-06T21:01:54.442Z,-0.31
2023-02-06T21:04:25.658Z,-0.36
2023-02-06T21:06:58.576Z,-0.41
2023-02-06T21:09:29.537Z,-0.46
2023-02-06T21:11:59.956Z,-0.53
2023-02-06T21:14:30.877Z,-0.61
2023-02-06T21:17:01.405Z,-0.68
2023-02-06T21:19:32.197Z,-0.73
2023-02-06T21:22:03.238Z,-0.79
2023-02-06T21:24:34.030Z,-0.85
2023-02-06T21:27:04.648Z,-0.88
2023-02-06T21:29:35.130Z,-0.91
2023-02-06T21:32:13.664Z,-0.94
2023-02-06T21:34:45.361Z,-0.96
2023-02-06T21:37:16.064Z,-0.96
2023-02-06T21:39:46.872Z,-0.98
2023-02-06T21:42:20.444Z,-1.00
2023-02-06T21:44:50.981Z,-1.03
2023-02-06T21:47:21.574Z,-1.05
2023-02-06T21:49:52.170Z,-1.06
2023-02-06T21:52:22.663Z,-1.06
2023-02-06T21:54:53.380Z,-1.07
2023-02-06T21:57:23.957Z,-1.04
2023-02-06T21:59:54.534Z,-1.01
2023-02-06T22:02:25.117Z,-0.98
2023-02-06T22:04:56.466Z,-0.96
2023-02-06T22:07:25.300Z,-0.96
2023-02-06T22:09:55.873Z,-0.97
2023-02-06T22:12:26.331Z,-0.99
2023-02-06T22:14:56.982Z,-1.00
2023-02-06T22:17:29.605Z,-1.02
2023-02-06T22:20:00.068Z,-1.01
2023-02-06T22:22:30.512Z,-0.97
2023-02-06T22:25:00.992Z,-0.95
2023-02-06T22:27:32.826Z,-0.96
2023-02-06T22:30:03.268Z,-0.96
2023-02-06T22:32:36.757Z,-0.94
2023-02-06T22:35:08.324Z,-0.90
2023-02-06T22:37:38.903Z,-0.83
2023-02-06T22:40:10.554Z,-0.81
2023-02-06T22:42:40.842Z,-0.79
2023-02-06T22:45:12.084Z,-0.76
2023-02-06T22:47:41.234Z,-0.71
2023-02-06T22:50:12.192Z,-0.64
2023-02-06T22:53:00.441Z,-0.55
2023-02-06T22:55:51.955Z,-0.50
2023-02-06T22:58:20.831Z,-0.46
2023-02-06T23:00:51.327Z,-0.43
2023-02-06T23:03:21.928Z,-0.39
2023-02-06T23:05:52.382Z,-0.38
2023-02-06T23:08:23.028Z,-0.40
2023-02-06T23:10:53.395Z,-0.41
2023-02-06T23:13:24.376Z,-0.42
2023-02-06T23:15:56.998Z,-0.44
2023-02-06T23:18:28.447Z,-0.46
2023-02-06T23:21:00.534Z,-0.47
2023-02-06T23:23:31.679Z,-0.47
2023-02-06T23:26:02.143Z,-0.48
2023-02-06T23:28:33.003Z,-0.44
2023-02-06T23:31:03.532Z,-0.43
2023-02-06T23:33:34.712Z,-0.42
2023-02-06T23:36:08.285Z,-0.41
2023-02-06T23:38:38.743Z,-0.38
2023-02-06T23:41:12.511Z,-0.35
2023-02-06T23:43:43.202Z,-0.32
2023-02-06T23:46:15.452Z,-0.30
2023-02-06T23:48:45.934Z,-0.28
2023-02-06T23:51:16.595Z,-0.29
2023-02-06T23:53:47.248Z,-0.33
2023-02-06T23:56:20.509Z,-0.35
2023-02-06T23:58:52.047Z,-0.35
